Time;durP1;ratioP1;P1;durP2;ratioP2;P2;SDS_P1;SDS_P2;PMS_P1;PMS_P2;Temp;Humidity;BMP_temperature;BMP_pressure;BME280_temperature;BME280_humidity;BME280_pressure;Samples;Min_cycle;Max_cycle;Signal;HPM_P1;HPM_P2
2023/05/18 00:03:07;;;;;;;;;;;;;;;6.31;100.00;96200.72;10470944;28;2008;-72
2023/05/18 00:08:09;;;;;;;;;;;;;;;6.25;100.00;96192.84;10475053;28;2059;-73
2023/05/18 00:13:12;;;;;;;;;;;;;;;6.27;100.00;96194.22;10485751;28;1877;-72
2023/05/18 00:18:14;;;;;;;;;;;;;;;6.29;100.00;96188.66;10483526;28;1981;-72
2023/05/18 00:23:17;;;;;;;;;;;;;;;6.28;100.00;96182.50;10481645;28;2012;-72
2023/05/18 00:28:19;;;;;;;;;;;;;;;6.28;100.00;96176.34;10480983;28;1853;-72
2023/05/18 00:33:22;;;;;;;;;;;;;;;6.25;100.00;96185.66;10466751;28;1893;-72
2023/05/18 00:38:24;;;;;;;;;;;;;;;6.13;100.00;96176.84;10478355;28;1942;-72
2023/05/18 00:43:26;;;;;;;;;;;;;;;6.01;100.00;96181.41;10479149;28;4469;-73
2023/05/18 00:48:29;;;;;;;;;;;;;;;5.83;100.00;96174.31;10475903;28;1940;-73
2023/05/18 00:53:31;;;;;;;;;;;;;;;5.77;100.00;96175.25;10481430;28;2071;-71
2023/05/18 00:58:35;;;;;;;;;;;;;;;5.67;100.00;96178.50;10485923;28;2241;-72
2023/05/18 01:03:38;;;;;;;;;;;;;;;5.53;100.00;96172.56;10479569;28;1995;-72
2023/05/18 01:08:42;;;;;;;;;;;;;;;5.54;100.00;96178.75;10479165;28;1916;-72
2023/05/18 01:13:45;;;;;;;;;;;;;;;5.63;100.00;96174.69;10478476;28;2104;-72
2023/05/18 01:18:47;;;;;;;;;;;;;;;5.57;100.00;96175.59;10476323;28;1901;-72
2023/05/18 01:23:51;;;;;;;;;;;;;;;5.53;100.00;96174.44;10478666;28;1955;-72
2023/05/18 01:28:53;;;;;;;;;;;;;;;5.44;100.00;96171.31;10478881;28;1886;-71
2023/05/18 01:33:56;;;;;;;;;;;;;;;5.42;100.00;96163.56;10477230;28;1999;-72
2023/05/18 01:39:00;;;;;;;;;;;;;;;5.43;100.00;96159.84;10478592;28;1927;-71
2023/05/18 01:44:03;;;;;;;;;;;;;;;5.37;100.00;96165.28;10479850;28;1977;-72
2023/05/18 01:49:05;;;;;;;;;;;;;;;5.25;100.00;96162.59;10468672;28;2059;-76
2023/05/18 01:54:08;;;;;;;;;;;;;;;5.19;100.00;96163.53;10469898;28;1888;-72
2023/05/18 01:59:11;;;;;;;;;;;;;;;5.17;100.00;96154.16;10478673;28;1973;-72
2023/05/18 02:04:13;;;;;;;;;;;;;;;4.99;100.00;96157.69;10472879;28;1917;-74
2023/05/18 02:09:15;;;;;;;;;;;;;;;4.95;100.00;96151.19;10479728;28;2072;-72
2023/05/18 02:14:18;;;;;;;;;;;;;;;4.81;100.00;96153.25;10466030;28;2022;-73
2023/05/18 02:19:21;;;;;;;;;;;;;;;4.76;100.00;96145.94;10470880;28;2258;-72
2023/05/18 02:24:23;;;;;;;;;;;;;;;4.73;100.00;96154.41;10475083;28;1990;-75
2023/05/18 02:29:25;;;;;;;;;;;;;;;4.68;100.00;96156.13;10473562;28;1981;-73
2023/05/18 02:34:31;;;;;;;;;;;;;;;4.64;100.00;96144.28;10479068;28;1951;-73
2023/05/18 02:39:34;;;;;;;;;;;;;;;4.66;100.00;96155.53;10473245;28;4434;-72
2023/05/18 02:44:36;;;;;;;;;;;;;;;4.72;100.00;96141.31;10474387;28;1985;-72
2023/05/18 02:49:39;;;;;;;;;;;;;;;4.68;100.00;96143.59;10463360;28;2056;-73
2023/05/18 02:54:41;;;;;;;;;;;;;;;4.71;100.00;96140.50;10477048;28;1901;-72
2023/05/18 02:59:44;;;;;;;;;;;;;;;4.66;100.00;96137.72;10476056;28;2198;-72
2023/05/18 03:04:52;;;;;;;;;;;;;;;4.72;100.00;96133.31;10478742;28;2134;-72
2023/05/18 03:09:55;;;;;;;;;;;;;;;4.68;100.00;96140.13;10480988;28;2040;-72
2023/05/18 03:14:57;;;;;;;;;;;;;;;4.74;100.00;96141.88;10482730;28;1945;-72
2023/05/18 03:20:00;;;;;;;;;;;;;;;4.64;100.00;96137.09;10474420;28;1946;-73
2023/05/18 03:25:02;;;;;;;;;;;;;;;4.46;100.00;96147.81;10477256;28;1973;-72
2023/05/18 03:30:04;;;;;;;;;;;;;;;4.39;100.00;96142.59;10472291;28;2149;-72
2023/05/18 03:35:07;;;;;;;;;;;;;;;4.37;100.00;96146.50;10472282;28;2031;-73
2023/05/18 03:40:10;;;;;;;;;;;;;;;4.32;100.00;96158.63;10477308;28;4371;-72
2023/05/18 03:45:13;;;;;;;;;;;;;;;4.40;100.00;96159.38;10478950;28;1984;-72
2023/05/18 03:50:15;;;;;;;;;;;;;;;4.48;100.00;96161.72;10481505;28;2034;-72
2023/05/18 03:55:21;;;;;;;;;;;;;;;4.52;100.00;96163.72;10475023;28;2033;-71
2023/05/18 04:00:23;;;;;;;;;;;;;;;4.63;100.00;96156.78;10471020;28;2040;-72
2023/05/18 04:05:27;;;;;;;;;;;;;;;4.79;100.00;96169.47;10477680;28;2158;-71
2023/05/18 04:10:30;;;;;;;;;;;;;;;5.04;100.00;96161.31;10469769;28;2083;-72
2023/05/18 04:15:32;;;;;;;;;;;;;;;5.17;100.00;96164.81;10475608;28;1941;-72
2023/05/18 04:20:34;;;;;;;;;;;;;;;5.30;100.00;96160.06;10479940;28;1952;-72
2023/05/18 04:25:38;;;;;;;;;;;;;;;5.54;100.00;96160.09;10482724;28;1981;-73
2023/05/18 04:30:41;;;;;;;;;;;;;;;5.79;100.00;96155.31;10479231;28;1798;-71
2023/05/18 04:35:43;;;;;;;;;;;;;;;6.03;100.00;96156.09;10478162;28;1839;-74
2023/05/18 04:40:46;;;;;;;;;;;;;;;6.18;100.00;96171.63;10474797;28;4508;-73
2023/05/18 04:45:50;;;;;;;;;;;;;;;6.43;100.00;96160.66;10479407;28;1917;-72
2023/05/18 04:50:53;;;;;;;;;;;;;;;6.83;100.00;96165.94;10475836;28;1722;-72
2023/05/18 04:55:55;;;;;;;;;;;;;;;6.75;100.00;96177.00;10483148;28;1833;-73
2023/05/18 05:00:58;;;;;;;;;;;;;;;6.96;100.00;96167.50;10475640;28;1961;-72
2023/05/18 05:06:00;;;;;;;;;;;;;;;7.06;100.00;96170.31;10476429;28;1914;-71
2023/05/18 05:11:03;;;;;;;;;;;;;;;7.32;100.00;96166.22;10475322;28;2000;-70
2023/05/18 05:16:05;;;;;;;;;;;;;;;7.45;100.00;96168.56;10482130;28;1830;-71
2023/05/18 05:21:07;;;;;;;;;;;;;;;7.49;100.00;96166.22;10483431;28;1868;-72
2023/05/18 05:26:10;;;;;;;;;;;;;;;7.81;100.00;96172.56;10472620;28;2009;-72
2023/05/18 05:31:13;;;;;;;;;;;;;;;8.40;100.00;96161.34;10475075;28;1823;-72
2023/05/18 05:36:16;;;;;;;;;;;;;;;8.60;100.00;96158.88;10481270;28;1917;-72
2023/05/18 05:41:18;;;;;;;;;;;;;;;8.47;100.00;96145.88;10477149;28;4453;-73
2023/05/18 05:46:21;;;;;;;;;;;;;;;8.25;100.00;96151.19;10477330;28;1890;-73
2023/05/18 05:51:23;;;;;;;;;;;;;;;8.37;100.00;96151.09;10475189;28;2047;-73
2023/05/18 05:56:26;;;;;;;;;;;;;;;8.72;100.00;96141.84;10479560;28;1986;-74
2023/05/18 06:01:28;;;;;;;;;;;;;;;8.84;100.00;96145.16;10470876;28;1886;-73
2023/05/18 06:06:31;;;;;;;;;;;;;;;9.22;100.00;96152.22;10477113;28;1905;-74
2023/05/18 06:11:34;;;;;;;;;;;;;;;9.42;100.00;96151.59;10472667;28;1838;-73
2023/05/18 06:16:36;;;;;;;;;;;;;;;9.89;100.00;96157.00;10470454;28;1985;-71
2023/05/18 06:21:39;;;;;;;;;;;;;;;10.15;100.00;96168.72;10471028;28;1853;-78
2023/05/18 06:26:41;;;;;;;;;;;;;;;9.74;100.00;96152.38;10478221;28;1914;-72
2023/05/18 06:31:44;;;;;;;;;;;;;;;10.57;100.00;96145.53;10470133;28;1826;-74
2023/05/18 06:36:46;;;;;;;;;;;;;;;10.65;100.00;96148.53;10472198;28;1865;-73
2023/05/18 06:41:50;;;;;;;;;;;;;;;10.33;100.00;96158.63;10477012;28;4488;-73
2023/05/18 06:46:53;;;;;;;;;;;;;;;9.68;100.00;96166.03;10479139;28;1989;-72
2023/05/18 06:51:55;;;;;;;;;;;;;;;9.73;100.00;96153.44;10483464;28;1847;-73
2023/05/18 06:56:57;;;;;;;;;;;;;;;10.31;100.00;96158.06;10480152;28;1817;-72
2023/05/18 07:02:00;;;;;;;;;;;;;;;10.40;100.00;96159.19;10478974;28;1869;-73
2023/05/18 07:07:03;;;;;;;;;;;;;;;10.85;100.00;96155.03;10480819;28;1910;-73
2023/05/18 07:12:05;;;;;;;;;;;;;;;11.09;100.00;96148.06;10485179;28;1845;-72
2023/05/18 07:17:07;;;;;;;;;;;;;;;10.87;100.00;96156.34;10473260;28;1506;-72
2023/05/18 07:22:10;;;;;;;;;;;;;;;10.88;100.00;96151.78;10484864;28;1475;-72
2023/05/18 07:27:12;;;;;;;;;;;;;;;11.14;100.00;96139.22;10481143;28;1930;-72
2023/05/18 07:32:15;;;;;;;;;;;;;;;10.88;100.00;96154.47;10476756;28;1835;-72
2023/05/18 07:37:17;;;;;;;;;;;;;;;10.90;100.00;96146.97;10477101;28;1923;-72
2023/05/18 07:42:20;;;;;;;;;;;;;;;11.67;100.00;96154.00;10481080;28;4545;-73
2023/05/18 07:47:22;;;;;;;;;;;;;;;11.98;100.00;96145.91;10480672;28;2173;-72
2023/05/18 07:52:25;;;;;;;;;;;;;;;11.93;100.00;96146.72;10480013;28;1937;-73
2023/05/18 07:57:28;;;;;;;;;;;;;;;11.61;100.00;96145.13;10474371;28;1977;-76
2023/05/18 08:02:31;;;;;;;;;;;;;;;11.12;100.00;96160.97;10460374;28;1840;-72
2023/05/18 08:07:35;;;;;;;;;;;;;;;11.61;100.00;96147.81;10479100;28;1910;-75
2023/05/18 08:12:38;;;;;;;;;;;;;;;11.35;100.00;96144.31;10479792;28;2076;-75
2023/05/18 08:17:40;;;;;;;;;;;;;;;11.04;100.00;96153.44;10476691;28;1834;-71
2023/05/18 08:22:43;;;;;;;;;;;;;;;12.08;100.00;96146.66;10471566;28;1913;-73
2023/05/18 08:27:46;;;;;;;;;;;;;;;12.81;100.00;96148.81;10476152;28;2078;-74
2023/05/18 08:32:48;;;;;;;;;;;;;;;12.27;100.00;96144.19;10466433;28;1857;-74
2023/05/18 08:37:51;;;;;;;;;;;;;;;12.11;100.00;96142.63;10480648;28;2118;-73
2023/05/18 08:42:54;;;;;;;;;;;;;;;11.88;100.00;96150.22;10474241;28;4549;-76
2023/05/18 08:47:57;;;;;;;;;;;;;;;12.92;100.00;96131.47;10471933;28;2041;-71
2023/05/18 08:53:00;;;;;;;;;;;;;;;13.19;100.00;96130.22;10475722;28;1806;-73
2023/05/18 08:58:02;;;;;;;;;;;;;;;12.53;100.00;96139.50;10472184;28;1833;-73
2023/05/18 09:03:05;;;;;;;;;;;;;;;12.01;100.00;96143.44;10481776;28;1774;-73
2023/05/18 09:08:07;;;;;;;;;;;;;;;13.03;100.00;96131.41;10474858;28;1914;-73
2023/05/18 09:13:10;;;;;;;;;;;;;;;12.86;100.00;96121.81;10478447;28;2000;-73
2023/05/18 09:18:12;;;;;;;;;;;;;;;12.32;100.00;96149.56;10477646;28;1854;-73
2023/05/18 09:23:15;;;;;;;;;;;;;;;12.91;100.00;96139.84;10473908;28;2005;-74
2023/05/18 09:28:17;;;;;;;;;;;;;;;12.08;100.00;96146.66;10472611;28;1918;-74
2023/05/18 09:33:20;;;;;;;;;;;;;;;12.39;100.00;96136.59;10469154;28;2063;-73
2023/05/18 09:38:23;;;;;;;;;;;;;;;13.06;100.00;96136.25;10475679;28;1949;-75
2023/05/18 09:43:26;;;;;;;;;;;;;;;13.05;100.00;96134.66;10476608;28;4449;-73
2023/05/18 09:48:29;;;;;;;;;;;;;;;13.47;100.00;96132.19;10478202;28;1922;-74
2023/05/18 09:53:31;;;;;;;;;;;;;;;13.45;100.00;96134.38;10479077;28;1898;-73
2023/05/18 09:58:34;;;;;;;;;;;;;;;13.78;100.00;96129.22;10472112;28;1990;-74
2023/05/18 10:03:36;;;;;;;;;;;;;;;13.47;100.00;96136.78;10477133;28;1885;-73
2023/05/18 10:08:39;;;;;;;;;;;;;;;13.48;100.00;96141.09;10472050;28;1965;-73
2023/05/18 10:13:43;;;;;;;;;;;;;;;13.71;100.00;96128.75;10467446;28;1893;-72
2023/05/18 10:18:46;;;;;;;;;;;;;;;13.63;100.00;96146.38;10465749;28;1952;-70
2023/05/18 10:23:48;;;;;;;;;;;;;;;14.02;96.18;96148.97;10467554;28;1854;-72
2023/05/18 10:28:51;;;;;;;;;;;;;;;13.78;96.67;96135.41;10474403;28;1924;-72
2023/05/18 10:33:53;;;;;;;;;;;;;;;13.13;100.00;96140.25;10467605;28;2029;-69
2023/05/18 10:38:56;;;;;;;;;;;;;;;13.17;100.00;96129.72;10479164;28;2152;-72
2023/05/18 10:44:02;;;;;;;;;;;;;;;13.44;100.00;96121.16;10476441;28;4441;-72
2023/05/18 10:49:11;;;;;;;;;;;;;;;13.74;100.00;96128.16;10473082;28;1985;-72
2023/05/18 10:54:14;;;;;;;;;;;;;;;13.80;100.00;96124.31;10477249;28;1900;-73
2023/05/18 10:59:18;;;;;;;;;;;;;;;13.65;100.00;96132.56;10467391;28;1874;-72
2023/05/18 11:04:21;;;;;;;;;;;;;;;13.40;100.00;96130.91;10477906;28;1977;-72
2023/05/18 11:09:24;;;;;;;;;;;;;;;13.31;100.00;96132.59;10475798;28;1774;-71
2023/05/18 11:14:27;;;;;;;;;;;;;;;13.36;100.00;96125.28;10477168;28;1841;-72
2023/05/18 11:19:30;;;;;;;;;;;;;;;13.33;100.00;96125.81;10471833;28;1885;-71
2023/05/18 11:24:34;;;;;;;;;;;;;;;13.90;100.00;96123.41;10474606;28;1898;-72
2023/05/18 11:29:37;;;;;;;;;;;;;;;13.57;100.00;96125.91;10478516;28;1829;-72
2023/05/18 11:34:40;;;;;;;;;;;;;;;13.02;100.00;96140.59;10477988;28;2048;-70
2023/05/18 11:39:43;;;;;;;;;;;;;;;12.81;100.00;96124.53;10476699;28;4473;-70
2023/05/18 11:44:59;;;;;;;;;;;;;;;12.96;100.00;96132.53;10478093;28;1969;-71
2023/05/18 11:50:02;;;;;;;;;;;;;;;13.19;100.00;96132.91;10481031;28;1893;-70
2023/05/18 11:55:05;;;;;;;;;;;;;;;12.88;100.00;96146.59;10484034;28;1890;-71
2023/05/18 12:00:09;;;;;;;;;;;;;;;13.11;100.00;96133.53;10475766;28;1878;-71
2023/05/18 12:05:11;;;;;;;;;;;;;;;13.34;100.00;96135.53;10478130;28;1976;-70
2023/05/18 12:10:14;;;;;;;;;;;;;;;13.65;100.00;96133.38;10477919;28;1874;-72
2023/05/18 12:15:17;;;;;;;;;;;;;;;13.86;100.00;96116.97;10477286;28;1834;-72
2023/05/18 12:20:20;;;;;;;;;;;;;;;15.02;92.47;96122.88;10479299;28;1935;-71
2023/05/18 12:25:23;;;;;;;;;;;;;;;14.41;91.58;96129.06;10477666;28;2019;-71
2023/05/18 12:30:33;;;;;;;;;;;;;;;13.91;100.00;96125.03;10475010;28;2026;-72
2023/05/18 12:35:37;;;;;;;;;;;;;;;13.79;100.00;96128.13;10470375;28;1790;-71
2023/05/18 12:40:46;;;;;;;;;;;;;;;14.52;97.22;96122.47;10470430;28;4496;-70
2023/05/18 12:45:49;;;;;;;;;;;;;;;14.73;97.62;96119.50;10474646;28;2081;-72
2023/05/18 12:50:51;;;;;;;;;;;;;;;15.68;86.83;96113.72;10476899;28;1893;-72
2023/05/18 12:55:54;;;;;;;;;;;;;;;15.63;85.41;96121.13;10471885;28;1892;-71
2023/05/18 13:00:56;;;;;;;;;;;;;;;14.68;95.42;96106.84;10475771;28;1873;-70
2023/05/18 13:05:59;;;;;;;;;;;;;;;15.01;89.14;96101.50;10475615;28;1901;-73
2023/05/18 13:11:02;;;;;;;;;;;;;;;14.18;97.46;96098.22;10466417;28;1941;-69
2023/05/18 13:16:15;;;;;;;;;;;;;;;13.56;100.00;96097.28;10466438;28;1945;-71
2023/05/18 13:21:19;;;;;;;;;;;;;;;13.57;100.00;96096.19;10471279;28;1862;-72
2023/05/18 13:26:21;;;;;;;;;;;;;;;13.80;100.00;96102.69;10472035;28;2255;-70
2023/05/18 13:31:24;;;;;;;;;;;;;;;14.00;100.00;96110.63;10477097;28;1873;-71
2023/05/18 13:36:28;;;;;;;;;;;;;;;13.94;100.00;96095.56;10461255;28;1870;-71
2023/05/18 13:41:31;;;;;;;;;;;;;;;13.75;100.00;96084.66;10463593;28;4559;-70
2023/05/18 13:46:36;;;;;;;;;;;;;;;13.84;100.00;96082.13;10494103;28;2009;-77
2023/05/18 13:51:39;;;;;;;;;;;;;;;13.76;100.00;96085.47;10463416;28;1785;-71
2023/05/18 13:56:42;;;;;;;;;;;;;;;15.22;100.00;96062.19;10466444;28;1865;-71
2023/05/18 14:01:46;;;;;;;;;;;;;;;14.62;100.00;96058.50;10469378;28;1773;-72
2023/05/18 14:06:48;;;;;;;;;;;;;;;14.37;100.00;96073.13;10478123;28;1963;-70
2023/05/18 14:11:51;;;;;;;;;;;;;;;14.30;100.00;96057.25;10471629;28;1989;-71
2023/05/18 14:16:55;;;;;;;;;;;;;;;13.62;100.00;96054.81;10461297;28;1831;-71
2023/05/18 14:21:57;;;;;;;;;;;;;;;13.89;100.00;96065.88;10471798;28;2138;-71
2023/05/18 14:27:00;;;;;;;;;;;;;;;14.07;100.00;96073.22;10463855;28;1962;-72
2023/05/18 14:32:03;;;;;;;;;;;;;;;13.56;100.00;96058.66;10467433;28;1825;-71
2023/05/18 14:37:05;;;;;;;;;;;;;;;13.78;100.00;96056.25;10476557;28;1837;-72
2023/05/18 14:42:07;;;;;;;;;;;;;;;13.25;100.00;96050.84;10470881;28;4339;-70
2023/05/18 14:47:10;;;;;;;;;;;;;;;13.11;100.00;96049.84;10473115;28;2044;-72
2023/05/18 14:52:13;;;;;;;;;;;;;;;12.78;100.00;96046.03;10473427;28;1905;-71
2023/05/18 14:57:15;;;;;;;;;;;;;;;12.70;100.00;96045.56;10471382;28;1941;-71
2023/05/18 15:02:18;;;;;;;;;;;;;;;12.91;100.00;96059.69;10469147;28;1949;-71
2023/05/18 15:07:21;;;;;;;;;;;;;;;13.09;100.00;96050.13;10465797;28;2118;-70
2023/05/18 15:12:23;;;;;;;;;;;;;;;12.86;100.00;96054.38;10468454;28;1912;-71
2023/05/18 15:17:25;;;;;;;;;;;;;;;12.77;100.00;96049.81;10475602;28;2083;-71
2023/05/18 15:22:28;;;;;;;;;;;;;;;12.57;100.00;96059.66;10478104;28;2027;-74
2023/05/18 15:27:30;;;;;;;;;;;;;;;12.61;100.00;96057.22;10471717;28;1981;-71
2023/05/18 15:32:33;;;;;;;;;;;;;;;13.10;100.00;96059.03;10483285;28;1944;-75
2023/05/18 15:37:35;;;;;;;;;;;;;;;13.14;100.00;96065.47;10476636;28;1889;-71
2023/05/18 15:42:37;;;;;;;;;;;;;;;12.78;100.00;96060.34;10479109;28;4473;-70
2023/05/18 15:47:41;;;;;;;;;;;;;;;12.38;100.00;96066.78;10499533;28;1906;-71
2023/05/18 15:52:43;;;;;;;;;;;;;;;12.41;100.00;96061.66;10473761;28;1940;-74
2023/05/18 15:57:45;;;;;;;;;;;;;;;12.09;100.00;96056.69;10477691;28;2181;-71
2023/05/18 16:02:48;;;;;;;;;;;;;;;12.07;100.00;96049.94;10484363;28;1917;-70
2023/05/18 16:07:51;;;;;;;;;;;;;;;12.10;100.00;96061.00;10475580;28;2022;-70
2023/05/18 16:12:53;;;;;;;;;;;;;;;12.12;100.00;96053.44;10494005;28;2059;-69
2023/05/18 16:17:55;;;;;;;;;;;;;;;12.08;100.00;96048.84;10476279;28;2031;-74
2023/05/18 16:22:58;;;;;;;;;;;;;;;12.08;100.00;96051.56;10470043;28;1906;-72
2023/05/18 16:28:01;;;;;;;;;;;;;;;12.07;100.00;96052.63;10471654;28;1943;-72
2023/05/18 16:33:03;;;;;;;;;;;;;;;12.04;100.00;96056.69;10488304;28;1906;-73
2023/05/18 16:38:06;;;;;;;;;;;;;;;12.18;100.00;96062.31;10477179;28;1950;-71
2023/05/18 16:43:08;;;;;;;;;;;;;;;12.11;100.00;96061.78;10473579;28;4508;-72
2023/05/18 16:48:11;;;;;;;;;;;;;;;11.95;100.00;96073.69;10471386;28;1938;-72
2023/05/18 16:53:13;;;;;;;;;;;;;;;11.89;100.00;96086.38;10475874;28;1842;-70
2023/05/18 16:58:16;;;;;;;;;;;;;;;11.96;100.00;96076.13;10473428;28;2135;-72
2023/05/18 17:03:18;;;;;;;;;;;;;;;11.86;100.00;96087.72;10478524;28;1968;-72
2023/05/18 17:08:21;;;;;;;;;;;;;;;11.78;100.00;96088.28;10471403;28;1925;-71
2023/05/18 17:13:23;;;;;;;;;;;;;;;11.72;100.00;96086.66;10470180;28;2150;-71
2023/05/18 17:18:25;;;;;;;;;;;;;;;11.74;100.00;96087.19;10464056;28;2182;-72
2023/05/18 17:23:28;;;;;;;;;;;;;;;11.60;100.00;96084.28;10465827;28;1992;-71
2023/05/18 17:28:30;;;;;;;;;;;;;;;11.54;100.00;96081.84;10477920;28;1914;-70
2023/05/18 17:33:32;;;;;;;;;;;;;;;11.51;100.00;96087.78;10473096;28;1904;-74
2023/05/18 17:38:35;;;;;;;;;;;;;;;11.53;100.00;96080.25;10469325;28;1937;-71
2023/05/18 17:43:37;;;;;;;;;;;;;;;11.43;100.00;96082.94;10475190;28;4457;-71
2023/05/18 17:48:40;;;;;;;;;;;;;;;11.40;100.00;96081.63;10476042;28;1923;-72
2023/05/18 17:53:43;;;;;;;;;;;;;;;11.40;100.00;96080.81;10475647;28;1837;-73
2023/05/18 17:58:46;;;;;;;;;;;;;;;11.29;100.00;96086.19;10468464;28;1928;-72
2023/05/18 18:03:49;;;;;;;;;;;;;;;11.21;100.00;96086.72;10475570;28;1853;-73
2023/05/18 18:08:52;;;;;;;;;;;;;;;11.14;100.00;96088.91;10468681;28;1935;-70
2023/05/18 18:13:54;;;;;;;;;;;;;;;11.12;100.00;96101.78;10468172;28;1941;-70
2023/05/18 18:18:58;;;;;;;;;;;;;;;11.13;100.00;96100.72;10463158;28;2055;-73
2023/05/18 18:24:01;;;;;;;;;;;;;;;11.02;100.00;96102.59;10465134;28;1921;-71
2023/05/18 18:29:03;;;;;;;;;;;;;;;11.02;100.00;96105.28;10476048;28;1920;-73
2023/05/18 18:34:06;;;;;;;;;;;;;;;10.94;100.00;96102.31;10470571;28;1542;-71
2023/05/18 18:39:09;;;;;;;;;;;;;;;10.89;100.00;96099.63;10482858;28;1451;-71
2023/05/18 18:44:11;;;;;;;;;;;;;;;10.81;100.00;96109.00;10483703;28;4438;-77
2023/05/18 18:49:14;;;;;;;;;;;;;;;10.69;100.00;96103.91;10484270;28;1973;-73
2023/05/18 18:54:17;;;;;;;;;;;;;;;10.53;100.00;96113.81;10489248;28;1499;-71
2023/05/18 18:59:20;;;;;;;;;;;;;;;10.47;100.00;96109.47;10484870;28;1666;-72
2023/05/18 19:04:23;;;;;;;;;;;;;;;10.43;100.00;96112.94;10486630;28;2052;-71
2023/05/18 19:09:27;;;;;;;;;;;;;;;10.47;100.00;96119.44;10482534;28;1981;-72
2023/05/18 19:14:32;;;;;;;;;;;;;;;10.41;100.00;96123.97;10488269;28;1538;-71
2023/05/18 19:19:36;;;;;;;;;;;;;;;10.34;100.00;96136.03;10484129;28;1475;-72
2023/05/18 19:24:39;;;;;;;;;;;;;;;10.39;100.00;96141.44;10482063;28;1509;-72
2023/05/18 19:29:41;;;;;;;;;;;;;;;10.41;100.00;96144.66;10480788;28;1985;-72
2023/05/18 19:34:44;;;;;;;;;;;;;;;10.38;100.00;96156.75;10480833;28;1657;-72
2023/05/18 19:39:47;;;;;;;;;;;;;;;10.26;100.00;96167.72;10482526;28;4417;-71
2023/05/18 19:44:49;;;;;;;;;;;;;;;10.15;100.00;96166.03;10490610;28;1919;-78
2023/05/18 19:49:52;;;;;;;;;;;;;;;10.08;100.00;96164.66;10489246;28;2005;-73
2023/05/18 19:54:55;;;;;;;;;;;;;;;10.10;100.00;96157.94;10483473;28;1460;-72
2023/05/18 19:59:57;;;;;;;;;;;;;;;10.00;100.00;96152.53;10476301;28;2048;-71
2023/05/18 20:05:00;;;;;;;;;;;;;;;9.99;100.00;96164.34;10482956;28;1646;-71
2023/05/18 20:10:02;;;;;;;;;;;;;;;9.93;100.00;96168.06;10485551;28;1918;-71
2023/05/18 20:15:06;;;;;;;;;;;;;;;9.97;100.00;96169.13;10481867;28;1475;-71
2023/05/18 20:20:08;;;;;;;;;;;;;;;9.92;100.00;96167.22;10481111;28;1679;-70
2023/05/18 20:25:11;;;;;;;;;;;;;;;9.87;100.00;96163.72;10482977;28;1436;-73
2023/05/18 20:30:14;;;;;;;;;;;;;;;9.81;100.00;96159.38;10483184;28;1913;-72
2023/05/18 20:35:16;;;;;;;;;;;;;;;9.74;100.00;96159.63;10473531;28;1813;-72
2023/05/18 20:40:18;;;;;;;;;;;;;;;9.68;100.00;96166.03;10483698;28;4394;-71
2023/05/18 20:45:21;;;;;;;;;;;;;;;9.61;100.00;96176.97;10480056;28;1538;-71
2023/05/18 20:50:23;;;;;;;;;;;;;;;9.53;100.00;96172.06;10482073;28;1931;-71
2023/05/18 20:55:27;;;;;;;;;;;;;;;9.61;100.00;96165.44;10478667;28;2367;-72
2023/05/18 21:00:30;;;;;;;;;;;;;;;9.42;100.00;96176.56;10472056;28;1857;-71
2023/05/18 21:05:33;;;;;;;;;;;;;;;9.46;100.00;96174.16;10481496;28;1866;-70
2023/05/18 21:10:36;;;;;;;;;;;;;;;9.45;100.00;96156.44;10479087;28;2044;-71
2023/05/18 21:15:38;;;;;;;;;;;;;;;9.46;100.00;96166.91;10480690;28;1893;-72
2023/05/18 21:20:41;;;;;;;;;;;;;;;9.40;100.00;96164.44;10477800;28;1819;-71
2023/05/18 21:25:44;;;;;;;;;;;;;;;9.33;100.00;96163.84;10474584;28;1854;-72
2023/05/18 21:30:48;;;;;;;;;;;;;;;9.24;100.00;96166.22;10472024;28;1973;-71
2023/05/18 21:35:51;;;;;;;;;;;;;;;9.28;100.00;96164.63;10476525;28;1905;-72
2023/05/18 21:40:54;;;;;;;;;;;;;;;9.26;100.00;96163.25;10471797;28;4449;-71
2023/05/18 21:45:56;;;;;;;;;;;;;;;9.24;100.00;96157.34;10476016;28;1845;-73
2023/05/18 21:50:59;;;;;;;;;;;;;;;9.20;100.00;96157.84;10476899;28;2081;-72
2023/05/18 21:56:01;;;;;;;;;;;;;;;9.19;100.00;96145.50;10479853;28;1885;-71
2023/05/18 22:01:04;;;;;;;;;;;;;;;9.06;100.00;96153.97;10470459;28;1874;-74
2023/05/18 22:06:07;;;;;;;;;;;;;;;9.03;100.00;96143.75;10472239;28;1924;-70
2023/05/18 22:11:09;;;;;;;;;;;;;;;9.01;100.00;96137.03;10466975;28;1922;-70
2023/05/18 22:16:12;;;;;;;;;;;;;;;8.94;100.00;96142.59;10470487;28;1850;-72
2023/05/18 22:21:14;;;;;;;;;;;;;;;8.92;100.00;96137.50;10470693;28;1917;-70
2023/05/18 22:26:18;;;;;;;;;;;;;;;8.90;100.00;96128.06;10474435;28;1901;-70
2023/05/18 22:31:21;;;;;;;;;;;;;;;8.89;100.00;96126.47;10470935;28;1918;-71
2023/05/18 22:36:23;;;;;;;;;;;;;;;8.88;100.00;96130.22;10476816;28;1869;-72
2023/05/18 22:41:26;;;;;;;;;;;;;;;8.82;100.00;96123.97;10473753;28;4430;-70
2023/05/18 22:46:29;;;;;;;;;;;;;;;8.83;100.00;96127.47;10477886;28;2125;-73
2023/05/18 22:51:32;;;;;;;;;;;;;;;8.86;100.00;96117.06;10472687;28;2167;-72
2023/05/18 22:56:35;;;;;;;;;;;;;;;8.86;100.00;96127.78;10471415;28;1845;-71
2023/05/18 23:01:37;;;;;;;;;;;;;;;8.74;100.00;96134.38;10476633;28;1830;-71
2023/05/18 23:06:40;;;;;;;;;;;;;;;8.70;100.00;96128.69;10470588;28;1981;-69
2023/05/18 23:11:44;;;;;;;;;;;;;;;8.74;100.00;96123.66;10475975;28;1993;-72
2023/05/18 23:16:48;;;;;;;;;;;;;;;8.70;100.00;96119.84;10471299;28;2103;-72
2023/05/18 23:21:50;;;;;;;;;;;;;;;8.73;100.00;96122.84;10471361;28;1705;-72
2023/05/18 23:26:52;;;;;;;;;;;;;;;8.63;100.00;96118.16;10480221;28;1629;-71
2023/05/18 23:31:55;;;;;;;;;;;;;;;8.66;100.00;96123.03;10477650;28;2011;-72
2023/05/18 23:37:01;;;;;;;;;;;;;;;8.71;100.00;96124.13;10485666;28;2138;-72
2023/05/18 23:42:03;;;;;;;;;;;;;;;8.73;100.00;96117.47;10481956;28;4425;-71
2023/05/18 23:47:06;;;;;;;;;;;;;;;8.63;100.00;96122.72;10487859;28;2225;-72
2023/05/18 23:52:09;;;;;;;;;;;;;;;8.60;100.00;96118.69;10482643;28;1993;-71
2023/05/18 23:57:11;;;;;;;;;;;;;;;8.56;100.00;96116.75;10484960;28;1966;-71
